sensor_id;sensor_type;location;lat;lon;timestamp;P1;durP1;ratioP1;P2;durP2;ratioP2
13475;SDS011;6810;63.824;20.288;2024-01-27T05:58:05;1.00;;;0.80;;
13475;SDS011;6810;63.824;20.288;2024-01-27T06:00:52;1.13;;;0.60;;
13475;SDS011;6810;63.824;20.288;2024-01-27T06:03:42;0.53;;;0.53;;
13475;SDS011;6810;63.824;20.288;2024-01-27T06:06:29;0.87;;;0.67;;
13475;SDS011;6810;63.824;20.288;2024-01-27T06:09:16;0.83;;;0.73;;
13475;SDS011;6810;63.824;20.288;2024-01-27T06:12:03;1.17;;;0.60;;
13475;SDS011;6810;63.824;20.288;2024-01-27T06:14:51;0.50;;;0.50;;
13475;SDS011;6810;63.824;20.288;2024-01-27T06:17:38;1.50;;;0.60;;
13475;SDS011;6810;63.824;20.288;2024-01-27T06:20:25;0.63;;;0.60;;
13475;SDS011;6810;63.824;20.288;2024-01-27T06:23:12;0.57;;;0.40;;
13475;SDS011;6810;63.824;20.288;2024-01-27T06:25:59;0.83;;;0.47;;
13475;SDS011;6810;63.824;20.288;2024-01-27T06:28:50;0.40;;;0.40;;
13475;SDS011;6810;63.824;20.288;2024-01-27T06:31:17;1.70;;;0.60;;
13475;SDS011;6810;63.824;20.288;2024-01-27T06:34:04;1.37;;;0.67;;
13475;SDS011;6810;63.824;20.288;2024-01-27T06:36:51;0.60;;;0.43;;
13475;SDS011;6810;63.824;20.288;2024-01-27T06:39:38;0.60;;;0.60;;
13475;SDS011;6810;63.824;20.288;2024-01-27T06:42:24;1.03;;;0.43;;
13475;SDS011;6810;63.824;20.288;2024-01-27T06:45:11;0.80;;;0.50;;
13475;SDS011;6810;63.824;20.288;2024-01-27T06:47:58;0.40;;;0.40;;
13475;SDS011;6810;63.824;20.288;2024-01-27T06:50:46;0.47;;;0.40;;
13475;SDS011;6810;63.824;20.288;2024-01-27T06:53:32;0.60;;;0.60;;
13475;SDS011;6810;63.824;20.288;2024-01-27T06:56:19;0.73;;;0.70;;
13475;SDS011;6810;63.824;20.288;2024-01-27T06:59:06;0.80;;;0.80;;
13475;SDS011;6810;63.824;20.288;2024-01-27T07:01:53;1.50;;;0.90;;
13475;SDS011;6810;63.824;20.288;2024-01-27T07:04:40;2.73;;;0.97;;
13475;SDS011;6810;63.824;20.288;2024-01-27T07:07:27;1.80;;;1.03;;
13475;SDS011;6810;63.824;20.288;2024-01-27T07:10:15;1.20;;;0.83;;
13475;SDS011;6810;63.824;20.288;2024-01-27T07:13:02;0.60;;;0.60;;
13475;SDS011;6810;63.824;20.288;2024-01-27T07:15:49;1.27;;;0.90;;
13475;SDS011;6810;63.824;20.288;2024-01-27T07:18:36;1.53;;;0.70;;
13475;SDS011;6810;63.824;20.288;2024-01-27T07:21:23;3.30;;;0.60;;
13475;SDS011;6810;63.824;20.288;2024-01-27T07:24:10;2.27;;;1.20;;
13475;SDS011;6810;63.824;20.288;2024-01-27T07:26:59;1.83;;;0.50;;
13475;SDS011;6810;63.824;20.288;2024-01-27T07:29:47;2.00;;;0.50;;
13475;SDS011;6810;63.824;20.288;2024-01-27T07:32:34;0.70;;;0.60;;
13475;SDS011;6810;63.824;20.288;2024-01-27T07:35:20;0.90;;;0.50;;
13475;SDS011;6810;63.824;20.288;2024-01-27T07:38:07;0.40;;;0.40;;
13475;SDS011;6810;63.824;20.288;2024-01-27T07:40:54;1.80;;;0.60;;
13475;SDS011;6810;63.824;20.288;2024-01-27T07:43:41;0.40;;;0.40;;
13475;SDS011;6810;63.824;20.288;2024-01-27T07:46:28;0.33;;;0.33;;
13475;SDS011;6810;63.824;20.288;2024-01-27T07:49:15;1.40;;;0.70;;
13475;SDS011;6810;63.824;20.288;2024-01-27T07:52:02;1.23;;;0.60;;
13475;SDS011;6810;63.824;20.288;2024-01-27T07:54:49;0.40;;;0.40;;
13475;SDS011;6810;63.824;20.288;2024-01-27T07:57:35;1.60;;;0.53;;
13475;SDS011;6810;63.824;20.288;2024-01-27T08:00:22;2.37;;;0.67;;
13475;SDS011;6810;63.824;20.288;2024-01-27T08:03:10;1.13;;;0.67;;
13475;SDS011;6810;63.824;20.288;2024-01-27T08:05:56;1.77;;;0.67;;
13475;SDS011;6810;63.824;20.288;2024-01-27T08:08:47;1.80;;;0.70;;
13475;SDS011;6810;63.824;20.288;2024-01-27T08:11:34;0.87;;;0.63;;
13475;SDS011;6810;63.824;20.288;2024-01-27T08:14:21;1.70;;;0.70;;
13475;SDS011;6810;63.824;20.288;2024-01-27T08:17:08;1.20;;;0.70;;
13475;SDS011;6810;63.824;20.288;2024-01-27T08:19:55;0.77;;;0.57;;
13475;SDS011;6810;63.824;20.288;2024-01-27T08:22:42;0.90;;;0.50;;
13475;SDS011;6810;63.824;20.288;2024-01-27T08:25:32;1.20;;;0.50;;
13475;SDS011;6810;63.824;20.288;2024-01-27T08:28:19;3.10;;;0.57;;
13475;SDS011;6810;63.824;20.288;2024-01-27T08:31:06;0.50;;;0.50;;
13475;SDS011;6810;63.824;20.288;2024-01-27T08:33:53;0.63;;;0.50;;
13475;SDS011;6810;63.824;20.288;2024-01-27T08:36:40;0.83;;;0.50;;
13475;SDS011;6810;63.824;20.288;2024-01-27T08:39:27;1.90;;;0.50;;
13475;SDS011;6810;63.824;20.288;2024-01-27T08:42:14;0.73;;;0.47;;
13475;SDS011;6810;63.824;20.288;2024-01-27T08:45:01;0.60;;;0.60;;
13475;SDS011;6810;63.824;20.288;2024-01-27T08:47:48;2.40;;;0.50;;
13475;SDS011;6810;63.824;20.288;2024-01-27T08:50:35;1.80;;;0.70;;
13475;SDS011;6810;63.824;20.288;2024-01-27T08:53:22;2.07;;;0.70;;
13475;SDS011;6810;63.824;20.288;2024-01-27T08:56:09;2.47;;;0.60;;
13475;SDS011;6810;63.824;20.288;2024-01-27T08:58:56;2.20;;;0.60;;
13475;SDS011;6810;63.824;20.288;2024-01-27T09:01:43;1.50;;;0.87;;
13475;SDS011;6810;63.824;20.288;2024-01-27T09:04:30;2.50;;;0.63;;
13475;SDS011;6810;63.824;20.288;2024-01-27T09:07:17;3.17;;;0.60;;
13475;SDS011;6810;63.824;20.288;2024-01-27T09:10:04;1.20;;;0.63;;
13475;SDS011;6810;63.824;20.288;2024-01-27T09:12:51;1.83;;;0.70;;
13475;SDS011;6810;63.824;20.288;2024-01-27T09:15:38;1.33;;;0.40;;
13475;SDS011;6810;63.824;20.288;2024-01-27T09:18:25;1.13;;;0.60;;
13475;SDS011;6810;63.824;20.288;2024-01-27T09:21:13;3.50;;;0.90;;
13475;SDS011;6810;63.824;20.288;2024-01-27T09:24:00;2.00;;;0.70;;
13475;SDS011;6810;63.824;20.288;2024-01-27T09:26:47;1.20;;;0.50;;
13475;SDS011;6810;63.824;20.288;2024-01-27T09:29:34;1.60;;;0.60;;
13475;SDS011;6810;63.824;20.288;2024-01-27T09:32:21;0.70;;;0.70;;
13475;SDS011;6810;63.824;20.288;2024-01-27T09:35:08;2.83;;;0.60;;
13475;SDS011;6810;63.824;20.288;2024-01-27T09:37:55;4.17;;;0.60;;
13475;SDS011;6810;63.824;20.288;2024-01-27T09:40:41;1.50;;;0.67;;
13475;SDS011;6810;63.824;20.288;2024-01-27T09:43:28;1.90;;;0.80;;
13475;SDS011;6810;63.824;20.288;2024-01-27T09:46:17;4.47;;;0.83;;
13475;SDS011;6810;63.824;20.288;2024-01-27T09:49:04;2.53;;;0.80;;
13475;SDS011;6810;63.824;20.288;2024-01-27T09:51:51;1.37;;;0.80;;
13475;SDS011;6810;63.824;20.288;2024-01-27T09:54:39;2.30;;;0.60;;
13475;SDS011;6810;63.824;20.288;2024-01-27T09:57:27;2.87;;;0.90;;
13475;SDS011;6810;63.824;20.288;2024-01-27T10:00:14;1.57;;;0.70;;
13475;SDS011;6810;63.824;20.288;2024-01-27T10:03:02;2.77;;;0.77;;
13475;SDS011;6810;63.824;20.288;2024-01-27T10:05:51;2.10;;;0.90;;
13475;SDS011;6810;63.824;20.288;2024-01-27T10:08:40;3.50;;;0.93;;
13475;SDS011;6810;63.824;20.288;2024-01-27T10:11:27;4.40;;;1.17;;
13475;SDS011;6810;63.824;20.288;2024-01-27T10:14:16;3.80;;;0.87;;
13475;SDS011;6810;63.824;20.288;2024-01-27T10:17:02;3.60;;;1.00;;
13475;SDS011;6810;63.824;20.288;2024-01-27T10:20:02;1.53;;;0.63;;
13475;SDS011;6810;63.824;20.288;2024-01-27T10:22:50;2.30;;;0.83;;
13475;SDS011;6810;63.824;20.288;2024-01-27T10:25:38;3.57;;;1.20;;
13475;SDS011;6810;63.824;20.288;2024-01-27T10:28:25;8.53;;;1.13;;
13475;SDS011;6810;63.824;20.288;2024-01-27T10:31:12;2.60;;;0.97;;
13475;SDS011;6810;63.824;20.288;2024-01-27T10:33:59;4.07;;;0.97;;
13475;SDS011;6810;63.824;20.288;2024-01-27T10:36:47;5.10;;;1.20;;
13475;SDS011;6810;63.824;20.288;2024-01-27T10:39:34;2.17;;;0.93;;
13475;SDS011;6810;63.824;20.288;2024-01-27T10:42:20;2.93;;;1.00;;
13475;SDS011;6810;63.824;20.288;2024-01-27T10:45:08;3.50;;;1.17;;
13475;SDS011;6810;63.824;20.288;2024-01-27T10:47:58;4.17;;;1.27;;
13475;SDS011;6810;63.824;20.288;2024-01-27T10:50:46;6.10;;;1.20;;
13475;SDS011;6810;63.824;20.288;2024-01-27T10:53:35;4.17;;;1.03;;
13475;SDS011;6810;63.824;20.288;2024-01-27T10:56:23;4.33;;;1.03;;
13475;SDS011;6810;63.824;20.288;2024-01-27T10:59:10;5.33;;;1.30;;
13475;SDS011;6810;63.824;20.288;2024-01-27T11:02:00;3.03;;;1.17;;
13475;SDS011;6810;63.824;20.288;2024-01-27T11:04:47;5.03;;;1.00;;
13475;SDS011;6810;63.824;20.288;2024-01-27T11:07:35;5.43;;;1.20;;
13475;SDS011;6810;63.824;20.288;2024-01-27T11:10:22;7.47;;;1.77;;
13475;SDS011;6810;63.824;20.288;2024-01-27T11:13:10;6.37;;;1.37;;
13475;SDS011;6810;63.824;20.288;2024-01-27T11:15:57;6.57;;;1.30;;
13475;SDS011;6810;63.824;20.288;2024-01-27T11:18:45;4.77;;;1.40;;
13475;SDS011;6810;63.824;20.288;2024-01-27T11:21:32;3.97;;;1.20;;
13475;SDS011;6810;63.824;20.288;2024-01-27T11:24:23;2.33;;;0.90;;
13475;SDS011;6810;63.824;20.288;2024-01-27T11:27:10;3.93;;;1.10;;
13475;SDS011;6810;63.824;20.288;2024-01-27T11:30:00;5.67;;;1.60;;
13475;SDS011;6810;63.824;20.288;2024-01-27T11:32:48;6.37;;;1.30;;
13475;SDS011;6810;63.824;20.288;2024-01-27T11:35:35;2.77;;;1.17;;
13475;SDS011;6810;63.824;20.288;2024-01-27T11:38:22;4.50;;;1.50;;
13475;SDS011;6810;63.824;20.288;2024-01-27T11:41:09;5.57;;;1.33;;
13475;SDS011;6810;63.824;20.288;2024-01-27T11:43:59;5.33;;;1.20;;
13475;SDS011;6810;63.824;20.288;2024-01-27T11:46:46;8.73;;;1.37;;
13475;SDS011;6810;63.824;20.288;2024-01-27T11:49:33;7.23;;;1.27;;
13475;SDS011;6810;63.824;20.288;2024-01-27T11:52:21;7.33;;;1.40;;
13475;SDS011;6810;63.824;20.288;2024-01-27T11:55:08;3.80;;;1.30;;
13475;SDS011;6810;63.824;20.288;2024-01-27T11:57:55;4.73;;;1.07;;
13475;SDS011;6810;63.824;20.288;2024-01-27T12:00:42;3.93;;;1.10;;
13475;SDS011;6810;63.824;20.288;2024-01-27T12:03:29;5.23;;;0.97;;
13475;SDS011;6810;63.824;20.288;2024-01-27T12:06:17;3.00;;;1.10;;
13475;SDS011;6810;63.824;20.288;2024-01-27T12:09:04;4.70;;;1.07;;
13475;SDS011;6810;63.824;20.288;2024-01-27T12:11:51;3.60;;;0.90;;
13475;SDS011;6810;63.824;20.288;2024-01-27T12:14:41;2.77;;;1.10;;
13475;SDS011;6810;63.824;20.288;2024-01-27T12:17:31;4.30;;;1.27;;
13475;SDS011;6810;63.824;20.288;2024-01-27T12:20:18;4.77;;;0.80;;
13475;SDS011;6810;63.824;20.288;2024-01-27T12:23:06;5.07;;;1.17;;
13475;SDS011;6810;63.824;20.288;2024-01-27T12:25:53;8.27;;;1.57;;
13475;SDS011;6810;63.824;20.288;2024-01-27T12:28:41;4.17;;;1.10;;
13475;SDS011;6810;63.824;20.288;2024-01-27T12:31:31;2.90;;;0.87;;
13475;SDS011;6810;63.824;20.288;2024-01-27T12:34:18;2.77;;;0.90;;
13475;SDS011;6810;63.824;20.288;2024-01-27T12:37:05;6.17;;;1.10;;
13475;SDS011;6810;63.824;20.288;2024-01-27T12:39:57;5.87;;;1.07;;
13475;SDS011;6810;63.824;20.288;2024-01-27T12:42:49;6.70;;;1.23;;
13475;SDS011;6810;63.824;20.288;2024-01-27T12:45:37;3.50;;;1.03;;
13475;SDS011;6810;63.824;20.288;2024-01-27T12:48:24;5.27;;;1.10;;
13475;SDS011;6810;63.824;20.288;2024-01-27T12:51:11;6.00;;;1.20;;
13475;SDS011;6810;63.824;20.288;2024-01-27T12:53:58;6.27;;;1.37;;
13475;SDS011;6810;63.824;20.288;2024-01-27T12:56:45;6.90;;;1.20;;
13475;SDS011;6810;63.824;20.288;2024-01-27T12:59:32;4.37;;;1.53;;
13475;SDS011;6810;63.824;20.288;2024-01-27T13:02:19;6.63;;;1.60;;
13475;SDS011;6810;63.824;20.288;2024-01-27T13:05:06;3.73;;;0.73;;
13475;SDS011;6810;63.824;20.288;2024-01-27T13:07:53;6.93;;;1.20;;
13475;SDS011;6810;63.824;20.288;2024-01-27T13:10:39;1.67;;;1.00;;
13475;SDS011;6810;63.824;20.288;2024-01-27T13:13:26;2.30;;;0.90;;
13475;SDS011;6810;63.824;20.288;2024-01-27T13:16:16;6.17;;;1.00;;
13475;SDS011;6810;63.824;20.288;2024-01-27T13:19:03;5.43;;;1.10;;
13475;SDS011;6810;63.824;20.288;2024-01-27T13:21:50;3.60;;;0.80;;
13475;SDS011;6810;63.824;20.288;2024-01-27T13:24:37;4.03;;;1.27;;
13475;SDS011;6810;63.824;20.288;2024-01-27T13:27:24;6.57;;;1.30;;
13475;SDS011;6810;63.824;20.288;2024-01-27T13:30:11;4.03;;;0.87;;
13475;SDS011;6810;63.824;20.288;2024-01-27T13:32:58;6.57;;;1.13;;
13475;SDS011;6810;63.824;20.288;2024-01-27T13:35:45;6.37;;;1.07;;
13475;SDS011;6810;63.824;20.288;2024-01-27T13:38:34;2.67;;;0.70;;
13475;SDS011;6810;63.824;20.288;2024-01-27T13:41:21;3.07;;;1.03;;
13475;SDS011;6810;63.824;20.288;2024-01-27T13:44:08;3.03;;;1.10;;
13475;SDS011;6810;63.824;20.288;2024-01-27T13:46:55;2.53;;;1.10;;
13475;SDS011;6810;63.824;20.288;2024-01-27T13:49:42;4.53;;;1.10;;
13475;SDS011;6810;63.824;20.288;2024-01-27T13:52:29;4.03;;;0.97;;
13475;SDS011;6810;63.824;20.288;2024-01-27T13:55:16;2.57;;;1.00;;
13475;SDS011;6810;63.824;20.288;2024-01-27T13:58:03;9.77;;;1.30;;
13475;SDS011;6810;63.824;20.288;2024-01-27T14:00:50;1.60;;;0.73;;
13475;SDS011;6810;63.824;20.288;2024-01-27T14:03:37;6.00;;;0.90;;
13475;SDS011;6810;63.824;20.288;2024-01-27T14:06:24;5.50;;;1.40;;
13475;SDS011;6810;63.824;20.288;2024-01-27T14:09:11;2.73;;;0.70;;
13475;SDS011;6810;63.824;20.288;2024-01-27T14:11:58;3.67;;;0.90;;
13475;SDS011;6810;63.824;20.288;2024-01-27T14:14:45;6.73;;;1.50;;
13475;SDS011;6810;63.824;20.288;2024-01-27T14:17:33;3.10;;;1.00;;
13475;SDS011;6810;63.824;20.288;2024-01-27T14:20:20;2.53;;;0.87;;
13475;SDS011;6810;63.824;20.288;2024-01-27T14:23:07;4.27;;;1.00;;
13475;SDS011;6810;63.824;20.288;2024-01-27T14:25:54;5.50;;;1.10;;
13475;SDS011;6810;63.824;20.288;2024-01-27T14:28:42;4.37;;;1.10;;
13475;SDS011;6810;63.824;20.288;2024-01-27T14:31:29;3.40;;;0.87;;
13475;SDS011;6810;63.824;20.288;2024-01-27T14:34:16;3.03;;;0.90;;
13475;SDS011;6810;63.824;20.288;2024-01-27T14:37:03;2.70;;;1.27;;
13475;SDS011;6810;63.824;20.288;2024-01-27T14:39:50;4.33;;;1.03;;
13475;SDS011;6810;63.824;20.288;2024-01-27T14:42:37;2.63;;;1.10;;
13475;SDS011;6810;63.824;20.288;2024-01-27T14:45:23;2.23;;;1.27;;
13475;SDS011;6810;63.824;20.288;2024-01-27T14:48:10;4.30;;;1.07;;
13475;SDS011;6810;63.824;20.288;2024-01-27T14:50:57;3.40;;;1.00;;
13475;SDS011;6810;63.824;20.288;2024-01-27T14:53:47;5.33;;;1.30;;
13475;SDS011;6810;63.824;20.288;2024-01-27T14:56:34;1.97;;;0.97;;
13475;SDS011;6810;63.824;20.288;2024-01-27T14:59:22;3.00;;;0.90;;
13475;SDS011;6810;63.824;20.288;2024-01-27T15:02:08;3.47;;;0.83;;
13475;SDS011;6810;63.824;20.288;2024-01-27T15:04:55;3.47;;;0.73;;
13475;SDS011;6810;63.824;20.288;2024-01-27T15:07:42;5.53;;;0.87;;
13475;SDS011;6810;63.824;20.288;2024-01-27T15:10:29;7.20;;;1.20;;
13475;SDS011;6810;63.824;20.288;2024-01-27T15:13:16;2.83;;;0.67;;
13475;SDS011;6810;63.824;20.288;2024-01-27T15:16:03;6.00;;;1.63;;
13475;SDS011;6810;63.824;20.288;2024-01-27T15:18:50;3.23;;;0.90;;
13475;SDS011;6810;63.824;20.288;2024-01-27T15:21:37;3.90;;;1.00;;
13475;SDS011;6810;63.824;20.288;2024-01-27T15:24:24;3.83;;;1.00;;
13475;SDS011;6810;63.824;20.288;2024-01-27T15:27:11;2.80;;;0.83;;
13475;SDS011;6810;63.824;20.288;2024-01-27T15:29:58;3.57;;;0.90;;
13475;SDS011;6810;63.824;20.288;2024-01-27T15:32:48;2.83;;;0.73;;
13475;SDS011;6810;63.824;20.288;2024-01-27T15:35:36;4.20;;;1.00;;
13475;SDS011;6810;63.824;20.288;2024-01-27T15:38:23;1.73;;;0.60;;
13475;SDS011;6810;63.824;20.288;2024-01-27T15:41:10;4.10;;;1.00;;
13475;SDS011;6810;63.824;20.288;2024-01-27T15:43:56;5.10;;;1.10;;
13475;SDS011;6810;63.824;20.288;2024-01-27T15:46:43;4.17;;;1.00;;
13475;SDS011;6810;63.824;20.288;2024-01-27T15:49:30;2.93;;;0.73;;
13475;SDS011;6810;63.824;20.288;2024-01-27T15:52:17;3.33;;;0.70;;
13475;SDS011;6810;63.824;20.288;2024-01-27T15:55:05;5.33;;;0.97;;
13475;SDS011;6810;63.824;20.288;2024-01-27T15:57:52;2.80;;;0.80;;
13475;SDS011;6810;63.824;20.288;2024-01-27T16:00:38;3.13;;;1.00;;
13475;SDS011;6810;63.824;20.288;2024-01-27T16:03:26;4.67;;;1.10;;
13475;SDS011;6810;63.824;20.288;2024-01-27T16:05:53;7.17;;;1.53;;
13475;SDS011;6810;63.824;20.288;2024-01-27T16:08:40;3.43;;;0.90;;
13475;SDS011;6810;63.824;20.288;2024-01-27T16:11:27;4.77;;;0.60;;
13475;SDS011;6810;63.824;20.288;2024-01-27T16:14:14;3.23;;;0.90;;
13475;SDS011;6810;63.824;20.288;2024-01-27T16:17:04;2.93;;;1.00;;
13475;SDS011;6810;63.824;20.288;2024-01-27T16:19:51;3.43;;;1.20;;
13475;SDS011;6810;63.824;20.288;2024-01-27T16:22:38;5.17;;;1.20;;
13475;SDS011;6810;63.824;20.288;2024-01-27T16:25:25;1.67;;;1.00;;
13475;SDS011;6810;63.824;20.288;2024-01-27T16:28:12;6.80;;;1.00;;
13475;SDS011;6810;63.824;20.288;2024-01-27T16:30:58;5.23;;;1.00;;
13475;SDS011;6810;63.824;20.288;2024-01-27T16:33:45;3.60;;;0.67;;
13475;SDS011;6810;63.824;20.288;2024-01-27T16:36:32;1.97;;;0.80;;
13475;SDS011;6810;63.824;20.288;2024-01-27T16:39:19;2.47;;;0.80;;
13475;SDS011;6810;63.824;20.288;2024-01-27T16:42:06;5.10;;;0.83;;
13475;SDS011;6810;63.824;20.288;2024-01-27T16:44:53;7.60;;;1.10;;
13475;SDS011;6810;63.824;20.288;2024-01-27T16:47:40;2.97;;;0.80;;
13475;SDS011;6810;63.824;20.288;2024-01-27T16:50:27;4.93;;;1.10;;
13475;SDS011;6810;63.824;20.288;2024-01-27T16:53:14;4.40;;;0.93;;
13475;SDS011;6810;63.824;20.288;2024-01-27T16:56:01;7.97;;;0.90;;
13475;SDS011;6810;63.824;20.288;2024-01-27T16:58:48;6.43;;;1.07;;
13475;SDS011;6810;63.824;20.288;2024-01-27T17:01:35;3.67;;;1.23;;
13475;SDS011;6810;63.824;20.288;2024-01-27T17:04:22;3.60;;;0.77;;
13475;SDS011;6810;63.824;20.288;2024-01-27T17:07:09;4.77;;;1.10;;
13475;SDS011;6810;63.824;20.288;2024-01-27T17:09:58;3.30;;;0.83;;
13475;SDS011;6810;63.824;20.288;2024-01-27T17:12:46;2.93;;;0.60;;
13475;SDS011;6810;63.824;20.288;2024-01-27T17:15:33;3.37;;;0.90;;
13475;SDS011;6810;63.824;20.288;2024-01-27T17:18:20;4.70;;;1.03;;
13475;SDS011;6810;63.824;20.288;2024-01-27T17:21:06;3.50;;;1.10;;
13475;SDS011;6810;63.824;20.288;2024-01-27T17:23:53;5.80;;;0.60;;
13475;SDS011;6810;63.824;20.288;2024-01-27T17:26:40;3.87;;;0.80;;
13475;SDS011;6810;63.824;20.288;2024-01-27T17:29:27;1.67;;;0.53;;
13475;SDS011;6810;63.824;20.288;2024-01-27T17:32:14;2.27;;;0.67;;
13475;SDS011;6810;63.824;20.288;2024-01-27T17:35:03;3.47;;;0.97;;
13475;SDS011;6810;63.824;20.288;2024-01-27T17:37:51;5.17;;;0.70;;
13475;SDS011;6810;63.824;20.288;2024-01-27T17:40:37;4.27;;;0.73;;
13475;SDS011;6810;63.824;20.288;2024-01-27T17:43:24;3.87;;;0.67;;
13475;SDS011;6810;63.824;20.288;2024-01-27T17:46:11;3.40;;;0.77;;
13475;SDS011;6810;63.824;20.288;2024-01-27T17:48:58;3.77;;;0.70;;
13475;SDS011;6810;63.824;20.288;2024-01-27T17:51:46;2.63;;;0.80;;
13475;SDS011;6810;63.824;20.288;2024-01-27T17:54:35;6.47;;;0.80;;
13475;SDS011;6810;63.824;20.288;2024-01-27T17:57:22;3.37;;;0.70;;
13475;SDS011;6810;63.824;20.288;2024-01-27T18:00:12;3.27;;;0.70;;
13475;SDS011;6810;63.824;20.288;2024-01-27T18:03:01;2.77;;;0.63;;
13475;SDS011;6810;63.824;20.288;2024-01-27T18:05:47;3.93;;;1.00;;
13475;SDS011;6810;63.824;20.288;2024-01-27T18:08:37;2.43;;;0.60;;
13475;SDS011;6810;63.824;20.288;2024-01-27T18:11:24;2.87;;;0.70;;
13475;SDS011;6810;63.824;20.288;2024-01-27T18:14:12;5.73;;;0.70;;
13475;SDS011;6810;63.824;20.288;2024-01-27T18:16:58;2.90;;;0.80;;
13475;SDS011;6810;63.824;20.288;2024-01-27T18:19:45;2.10;;;0.70;;
13475;SDS011;6810;63.824;20.288;2024-01-27T18:22:32;4.07;;;0.70;;
13475;SDS011;6810;63.824;20.288;2024-01-27T18:25:22;2.90;;;0.60;;
13475;SDS011;6810;63.824;20.288;2024-01-27T18:28:09;3.73;;;0.90;;
13475;SDS011;6810;63.824;20.288;2024-01-27T18:30:56;2.80;;;0.80;;
13475;SDS011;6810;63.824;20.288;2024-01-27T18:33:43;3.53;;;0.70;;
13475;SDS011;6810;63.824;20.288;2024-01-27T18:36:30;2.20;;;0.70;;
13475;SDS011;6810;63.824;20.288;2024-01-27T18:39:17;4.30;;;0.87;;
13475;SDS011;6810;63.824;20.288;2024-01-27T18:42:04;3.37;;;1.03;;
13475;SDS011;6810;63.824;20.288;2024-01-27T18:44:51;4.50;;;0.60;;
13475;SDS011;6810;63.824;20.288;2024-01-27T18:47:38;4.77;;;0.73;;
13475;SDS011;6810;63.824;20.288;2024-01-27T18:50:25;2.77;;;0.90;;
13475;SDS011;6810;63.824;20.288;2024-01-27T18:53:12;3.97;;;0.80;;
13475;SDS011;6810;63.824;20.288;2024-01-27T18:55:59;4.43;;;0.90;;
13475;SDS011;6810;63.824;20.288;2024-01-27T18:58:49;3.37;;;0.70;;
13475;SDS011;6810;63.824;20.288;2024-01-27T19:01:36;1.93;;;0.83;;
13475;SDS011;6810;63.824;20.288;2024-01-27T19:04:23;4.73;;;1.03;;
13475;SDS011;6810;63.824;20.288;2024-01-27T19:07:10;2.47;;;0.90;;
13475;SDS011;6810;63.824;20.288;2024-01-27T19:09:57;4.00;;;0.80;;
13475;SDS011;6810;63.824;20.288;2024-01-27T19:12:44;3.17;;;0.80;;
13475;SDS011;6810;63.824;20.288;2024-01-27T19:15:30;4.93;;;0.83;;
13475;SDS011;6810;63.824;20.288;2024-01-27T19:18:17;2.37;;;0.63;;
13475;SDS011;6810;63.824;20.288;2024-01-27T19:21:05;4.53;;;1.03;;
13475;SDS011;6810;63.824;20.288;2024-01-27T19:23:51;5.40;;;0.83;;
13475;SDS011;6810;63.824;20.288;2024-01-27T19:26:38;4.13;;;0.77;;
13475;SDS011;6810;63.824;20.288;2024-01-27T19:29:25;4.50;;;0.77;;
13475;SDS011;6810;63.824;20.288;2024-01-27T19:32:12;1.87;;;0.70;;
13475;SDS011;6810;63.824;20.288;2024-01-27T19:34:59;2.93;;;0.60;;
13475;SDS011;6810;63.824;20.288;2024-01-27T19:37:46;1.97;;;0.70;;
13475;SDS011;6810;63.824;20.288;2024-01-27T19:40:33;3.73;;;0.70;;
13475;SDS011;6810;63.824;20.288;2024-01-27T19:43:37;5.57;;;1.00;;
13475;SDS011;6810;63.824;20.288;2024-01-27T19:46:24;2.70;;;0.70;;
13475;SDS011;6810;63.824;20.288;2024-01-27T19:49:11;2.77;;;0.43;;
13475;SDS011;6810;63.824;20.288;2024-01-27T19:51:58;1.27;;;0.77;;
13475;SDS011;6810;63.824;20.288;2024-01-27T19:54:45;3.40;;;0.77;;
13475;SDS011;6810;63.824;20.288;2024-01-27T19:57:32;4.80;;;1.10;;
13475;SDS011;6810;63.824;20.288;2024-01-27T20:00:19;2.73;;;0.60;;
13475;SDS011;6810;63.824;20.288;2024-01-27T20:03:06;2.47;;;0.97;;
13475;SDS011;6810;63.824;20.288;2024-01-27T20:05:53;3.07;;;0.90;;
13475;SDS011;6810;63.824;20.288;2024-01-27T20:08:41;2.20;;;0.77;;
13475;SDS011;6810;63.824;20.288;2024-01-27T20:11:41;3.73;;;0.70;;
13475;SDS011;6810;63.824;20.288;2024-01-27T20:14:28;1.37;;;0.67;;
13475;SDS011;6810;63.824;20.288;2024-01-27T20:17:15;2.53;;;0.70;;
13475;SDS011;6810;63.824;20.288;2024-01-27T20:20:02;3.07;;;0.73;;
13475;SDS011;6810;63.824;20.288;2024-01-27T20:22:49;3.30;;;0.67;;
13475;SDS011;6810;63.824;20.288;2024-01-27T20:25:36;2.97;;;0.47;;
13475;SDS011;6810;63.824;20.288;2024-01-27T20:28:23;1.70;;;0.70;;
13475;SDS011;6810;63.824;20.288;2024-01-27T20:31:10;5.97;;;0.70;;
13475;SDS011;6810;63.824;20.288;2024-01-27T20:33:57;4.30;;;0.90;;
13475;SDS011;6810;63.824;20.288;2024-01-27T20:36:44;0.87;;;0.60;;
13475;SDS011;6810;63.824;20.288;2024-01-27T20:39:31;3.57;;;0.80;;
13475;SDS011;6810;63.824;20.288;2024-01-27T20:42:18;1.53;;;0.60;;
13475;SDS011;6810;63.824;20.288;2024-01-27T20:45:05;4.37;;;0.97;;
13475;SDS011;6810;63.824;20.288;2024-01-27T20:47:52;3.10;;;0.70;;
13475;SDS011;6810;63.824;20.288;2024-01-27T20:50:39;1.73;;;0.90;;
13475;SDS011;6810;63.824;20.288;2024-01-27T20:53:26;1.20;;;0.70;;
13475;SDS011;6810;63.824;20.288;2024-01-27T20:56:13;2.27;;;0.50;;
13475;SDS011;6810;63.824;20.288;2024-01-27T20:59:00;1.63;;;0.67;;
13475;SDS011;6810;63.824;20.288;2024-01-27T21:01:47;1.77;;;0.70;;
13475;SDS011;6810;63.824;20.288;2024-01-27T21:04:34;2.33;;;0.70;;
13475;SDS011;6810;63.824;20.288;2024-01-27T21:07:21;2.57;;;0.87;;
13475;SDS011;6810;63.824;20.288;2024-01-27T21:10:08;2.83;;;0.80;;
13475;SDS011;6810;63.824;20.288;2024-01-27T21:12:55;3.97;;;0.90;;
13475;SDS011;6810;63.824;20.288;2024-01-27T21:15:41;2.37;;;0.70;;
13475;SDS011;6810;63.824;20.288;2024-01-27T21:18:28;1.90;;;0.60;;
13475;SDS011;6810;63.824;20.288;2024-01-27T21:21:15;3.57;;;0.70;;
13475;SDS011;6810;63.824;20.288;2024-01-27T21:24:03;2.50;;;0.60;;
13475;SDS011;6810;63.824;20.288;2024-01-27T21:26:50;1.60;;;0.60;;
13475;SDS011;6810;63.824;20.288;2024-01-27T21:29:37;3.13;;;0.80;;
13475;SDS011;6810;63.824;20.288;2024-01-27T21:32:24;3.27;;;0.90;;
13475;SDS011;6810;63.824;20.288;2024-01-27T21:35:10;2.00;;;0.60;;
13475;SDS011;6810;63.824;20.288;2024-01-27T21:37:57;2.33;;;0.43;;
13475;SDS011;6810;63.824;20.288;2024-01-27T21:40:44;2.50;;;0.77;;
13475;SDS011;6810;63.824;20.288;2024-01-27T21:43:31;4.80;;;0.67;;
13475;SDS011;6810;63.824;20.288;2024-01-27T21:46:18;1.47;;;0.40;;
13475;SDS011;6810;63.824;20.288;2024-01-27T21:49:05;1.57;;;0.73;;
13475;SDS011;6810;63.824;20.288;2024-01-27T21:51:52;2.93;;;0.60;;
13475;SDS011;6810;63.824;20.288;2024-01-27T21:54:39;2.80;;;1.00;;
13475;SDS011;6810;63.824;20.288;2024-01-27T21:57:26;5.10;;;0.70;;
13475;SDS011;6810;63.824;20.288;2024-01-27T22:00:14;3.37;;;0.70;;
13475;SDS011;6810;63.824;20.288;2024-01-27T22:03:01;3.70;;;0.70;;
13475;SDS011;6810;63.824;20.288;2024-01-27T22:05:48;1.73;;;0.77;;
13475;SDS011;6810;63.824;20.288;2024-01-27T22:08:36;2.70;;;0.70;;
13475;SDS011;6810;63.824;20.288;2024-01-27T22:11:23;4.13;;;0.90;;
13475;SDS011;6810;63.824;20.288;2024-01-27T22:14:10;1.67;;;0.83;;
13475;SDS011;6810;63.824;20.288;2024-01-27T22:16:56;2.00;;;0.50;;
13475;SDS011;6810;63.824;20.288;2024-01-27T22:19:43;3.17;;;0.70;;
13475;SDS011;6810;63.824;20.288;2024-01-27T22:22:30;3.37;;;0.80;;
13475;SDS011;6810;63.824;20.288;2024-01-27T22:25:17;2.03;;;0.93;;
13475;SDS011;6810;63.824;20.288;2024-01-27T22:28:04;2.53;;;0.70;;
13475;SDS011;6810;63.824;20.288;2024-01-27T22:30:51;3.13;;;0.70;;
13475;SDS011;6810;63.824;20.288;2024-01-27T22:33:38;2.07;;;0.50;;
13475;SDS011;6810;63.824;20.288;2024-01-27T22:36:25;3.00;;;0.70;;
13475;SDS011;6810;63.824;20.288;2024-01-27T22:39:12;4.23;;;0.80;;
13475;SDS011;6810;63.824;20.288;2024-01-27T22:41:59;1.63;;;0.60;;
13475;SDS011;6810;63.824;20.288;2024-01-27T22:44:52;1.80;;;0.80;;